Time;durP1;ratioP1;P1;durP2;ratioP2;P2;SDS_P1;SDS_P2;PMS_P1;PMS_P2;Temp;Humidity;BMP_temperature;BMP_pressure;BME280_temperature;BME280_humidity;BME280_pressure;Samples;Min_cycle;Max_cycle;Signal;HPM_P1;HPM_P2
2023/08/11 00:01:53;;;;;;;3.33;3.03;;;;;;;;;;5028380;28;20544;-51
2023/08/11 00:04:19;;;;;;;3.33;3.03;;;;;;;;;;5025666;28;20674;-50
2023/08/11 00:06:45;;;;;;;4.00;3.70;;;;;;;;;;5026378;28;20194;-50
2023/08/11 00:09:11;;;;;;;3.77;3.47;;;;;;;;;;5028038;28;20232;-50
2023/08/11 00:11:37;;;;;;;3.40;3.20;;;;;;;;;;5027649;28;20200;-51
2023/08/11 00:14:03;;;;;;;3.50;2.93;;;;;;;;;;5004541;28;20184;-51
2023/08/11 00:16:30;;;;;;;3.80;3.50;;;;;;;;;;5029429;28;20548;-51
2023/08/11 00:18:56;;;;;;;3.70;3.30;;;;;;;;;;5010518;28;20628;-50
2023/08/11 00:21:23;;;;;;;3.57;3.27;;;;;;;;;;5026359;28;20664;-50
2023/08/11 00:23:49;;;;;;;3.60;3.30;;;;;;;;;;5024920;28;20645;-51
2023/08/11 00:26:15;;;;;;;3.70;3.40;;;;;;;;;;5028206;28;20289;-50
2023/08/11 00:28:42;;;;;;;3.67;3.30;;;;;;;;;;5021531;28;20189;-50
2023/08/11 00:31:08;;;;;;;3.80;3.40;;;;;;;;;;5027997;28;20750;-52
2023/08/11 00:33:36;;;;;;;3.30;3.10;;;;;;;;;;5027434;28;20196;-52
2023/08/11 00:36:02;;;;;;;3.60;3.30;;;;;;;;;;5027913;28;20684;-52
2023/08/11 00:38:36;;;;;;;3.40;3.20;;;;;;;;;;5025714;28;20773;-52
2023/08/11 00:41:02;;;;;;;3.20;3.00;;;;;;;;;;5025809;28;20662;-52
2023/08/11 00:43:29;;;;;;;3.80;3.10;;;;;;;;;;5026074;28;20226;-53
2023/08/11 00:45:55;;;;;;;3.63;3.33;;;;;;;;;;5026846;28;20223;-53
2023/08/11 00:48:21;;;;;;;5.30;3.23;;;;;;;;;;5027299;28;20187;-53
2023/08/11 00:50:47;;;;;;;3.73;3.40;;;;;;;;;;5023722;28;20192;-52
2023/08/11 00:53:14;;;;;;;3.50;3.20;;;;;;;;;;5025744;28;20187;-52
2023/08/11 00:55:40;;;;;;;3.70;3.40;;;;;;;;;;5025269;28;20198;-52
2023/08/11 00:58:07;;;;;;;3.70;3.27;;;;;;;;;;5026167;28;20280;-52
2023/08/11 01:00:35;;;;;;;5.03;3.40;;;;;;;;;;5021738;28;20228;-52
2023/08/11 01:03:02;;;;;;;3.70;3.27;;;;;;;;;;5024702;28;20643;-52
2023/08/11 01:05:29;;;;;;;3.53;3.23;;;;;;;;;;5025945;28;20618;-53
2023/08/11 01:07:58;;;;;;;3.57;2.93;;;;;;;;;;5025892;28;20530;-52
2023/08/11 01:10:24;;;;;;;3.20;2.90;;;;;;;;;;5024886;28;20195;-52
2023/08/11 01:13:01;;;;;;;4.10;3.80;;;;;;;;;;5026683;28;20643;-52
2023/08/11 01:15:31;;;;;;;3.40;3.10;;;;;;;;;;5019597;28;20982;-52
2023/08/11 01:17:58;;;;;;;3.60;3.30;;;;;;;;;;5026098;28;20346;-52
2023/08/11 01:20:24;;;;;;;3.33;3.10;;;;;;;;;;5025401;28;20202;-52
2023/08/11 01:22:54;;;;;;;3.77;3.47;;;;;;;;;;5026050;28;20188;-52
2023/08/11 01:25:21;;;;;;;4.27;3.83;;;;;;;;;;5023195;28;20187;-52
2023/08/11 01:27:56;;;;;;;3.73;3.43;;;;;;;;;;5024065;28;20652;-52
2023/08/11 01:30:23;;;;;;;3.50;3.27;;;;;;;;;;5023270;28;20207;-52
2023/08/11 01:32:50;;;;;;;3.77;3.47;;;;;;;;;;5025533;28;20580;-52
2023/08/11 01:35:16;;;;;;;3.70;3.40;;;;;;;;;;5025802;28;20191;-53
2023/08/11 01:37:43;;;;;;;3.47;3.20;;;;;;;;;;4984532;28;1109708;-52
2023/08/11 01:40:14;;;;;;;3.10;2.90;;;;;;;;;;5026965;28;20206;-52
2023/08/11 01:42:43;;;;;;;3.20;2.90;;;;;;;;;;5026842;28;20188;-53
2023/08/11 01:45:11;;;;;;;3.30;3.00;;;;;;;;;;5025959;28;20196;-53
2023/08/11 01:47:38;;;;;;;3.30;3.10;;;;;;;;;;5027283;28;20184;-53
2023/08/11 01:50:05;;;;;;;3.20;3.00;;;;;;;;;;5026250;28;20668;-53
2023/08/11 01:52:31;;;;;;;3.17;2.97;;;;;;;;;;5025945;28;20192;-53
2023/08/11 01:54:59;;;;;;;3.30;3.00;;;;;;;;;;5023664;28;20210;-52
2023/08/11 01:57:25;;;;;;;4.13;2.97;;;;;;;;;;5027197;28;20215;-52
2023/08/11 01:59:52;;;;;;;3.57;3.27;;;;;;;;;;5021015;28;20568;-52
2023/08/11 02:02:19;;;;;;;3.67;3.47;;;;;;;;;;5023121;28;20229;-52
2023/08/11 02:04:45;;;;;;;3.10;2.90;;;;;;;;;;5025805;28;20638;-52
2023/08/11 02:07:11;;;;;;;2.80;2.60;;;;;;;;;;5024894;28;20193;-52
2023/08/11 02:09:37;;;;;;;3.30;3.10;;;;;;;;;;5026043;28;20205;-52
2023/08/11 02:12:03;;;;;;;3.57;3.27;;;;;;;;;;5026541;28;20638;-52
2023/08/11 02:14:29;;;;;;;3.13;2.90;;;;;;;;;;5025791;28;20287;-52
2023/08/11 02:16:55;;;;;;;4.20;2.90;;;;;;;;;;5026271;28;20305;-52
2023/08/11 02:19:21;;;;;;;2.70;2.60;;;;;;;;;;5027075;28;20210;-52
2023/08/11 02:21:47;;;;;;;2.83;2.60;;;;;;;;;;5030131;28;20195;-52
2023/08/11 02:24:13;;;;;;;3.23;3.03;;;;;;;;;;5029714;28;20192;-52
2023/08/11 02:26:40;;;;;;;3.00;2.80;;;;;;;;;;5030455;28;20192;-52
2023/08/11 02:29:07;;;;;;;3.33;3.00;;;;;;;;;;5026730;28;20257;-52
2023/08/11 02:31:33;;;;;;;2.93;2.73;;;;;;;;;;5030210;28;20231;-52
2023/08/11 02:34:00;;;;;;;3.43;3.13;;;;;;;;;;5029051;28;20253;-52
2023/08/11 02:36:26;;;;;;;3.73;3.43;;;;;;;;;;5029669;28;20241;-53
2023/08/11 02:38:52;;;;;;;3.80;3.20;;;;;;;;;;5010611;28;20756;-52
2023/08/11 02:41:18;;;;;;;3.37;3.03;;;;;;;;;;5028068;28;20198;-53
2023/08/11 02:43:44;;;;;;;3.70;3.40;;;;;;;;;;5029070;28;20685;-53
2023/08/11 02:46:11;;;;;;;3.60;3.30;;;;;;;;;;5028456;28;20667;-52
2023/08/11 02:48:38;;;;;;;3.50;3.20;;;;;;;;;;5027282;28;20194;-52
2023/08/11 02:51:04;;;;;;;4.13;2.90;;;;;;;;;;5028832;28;20214;-53
2023/08/11 02:53:31;;;;;;;3.10;2.90;;;;;;;;;;5023826;28;20220;-52
2023/08/11 02:55:57;;;;;;;3.17;2.93;;;;;;;;;;5028341;28;20190;-52
2023/08/11 02:58:23;;;;;;;3.10;2.90;;;;;;;;;;5026776;28;20666;-52
2023/08/11 03:00:49;;;;;;;3.17;2.97;;;;;;;;;;5028223;28;20218;-53
2023/08/11 03:03:15;;;;;;;4.10;3.80;;;;;;;;;;5028350;28;20571;-54
2023/08/11 03:05:45;;;;;;;3.77;3.47;;;;;;;;;;5026793;28;20686;-53
2023/08/11 03:08:11;;;;;;;6.10;3.10;;;;;;;;;;5028590;28;20190;-53
2023/08/11 03:10:37;;;;;;;3.67;3.37;;;;;;;;;;5026465;28;20221;-53
2023/08/11 03:13:03;;;;;;;3.67;3.37;;;;;;;;;;5028143;28;20273;-53
2023/08/11 03:15:29;;;;;;;3.60;3.30;;;;;;;;;;5025449;28;20202;-53
2023/08/11 03:17:56;;;;;;;4.30;3.00;;;;;;;;;;5028937;28;20190;-53
2023/08/11 03:20:24;;;;;;;5.80;3.30;;;;;;;;;;5027121;28;20253;-53
2023/08/11 03:22:50;;;;;;;3.60;3.30;;;;;;;;;;5025465;28;20371;-53
2023/08/11 03:25:16;;;;;;;2.70;2.50;;;;;;;;;;5025671;28;20276;-53
2023/08/11 03:27:42;;;;;;;4.03;3.50;;;;;;;;;;5029080;28;20194;-53
2023/08/11 03:30:13;;;;;;;3.33;3.13;;;;;;;;;;5027693;28;20557;-53
2023/08/11 03:32:39;;;;;;;3.60;3.30;;;;;;;;;;5027733;28;20197;-53
2023/08/11 03:35:06;;;;;;;3.23;2.90;;;;;;;;;;5026171;28;20907;-53
2023/08/11 03:37:32;;;;;;;2.87;2.67;;;;;;;;;;5022355;28;20226;-53
2023/08/11 03:39:58;;;;;;;3.13;2.93;;;;;;;;;;5026624;28;20217;-53
2023/08/11 03:42:24;;;;;;;3.53;3.23;;;;;;;;;;5028394;28;20201;-53
2023/08/11 03:44:54;;;;;;;3.27;3.07;;;;;;;;;;5029017;28;20272;-53
2023/08/11 03:47:20;;;;;;;3.80;3.33;;;;;;;;;;5028833;28;20186;-53
2023/08/11 03:49:46;;;;;;;3.60;3.30;;;;;;;;;;5028937;28;20205;-53
2023/08/11 03:52:13;;;;;;;3.00;2.80;;;;;;;;;;5026078;28;20596;-54
2023/08/11 03:54:39;;;;;;;4.60;3.30;;;;;;;;;;5026709;28;20214;-53
2023/08/11 03:57:06;;;;;;;2.93;2.73;;;;;;;;;;5027833;28;20194;-53
2023/08/11 03:59:32;;;;;;;3.20;3.00;;;;;;;;;;5027002;28;20210;-53
2023/08/11 04:01:58;;;;;;;3.83;3.63;;;;;;;;;;5027674;28;20202;-53
2023/08/11 04:04:24;;;;;;;6.77;3.17;;;;;;;;;;5027931;28;20182;-53
2023/08/11 04:06:52;;;;;;;4.73;3.10;;;;;;;;;;5008158;28;20305;-53
2023/08/11 04:09:18;;;;;;;3.70;3.40;;;;;;;;;;5025720;28;20828;-53
2023/08/11 04:11:44;;;;;;;3.00;2.80;;;;;;;;;;5027924;28;20197;-53
2023/08/11 04:14:10;;;;;;;3.33;3.03;;;;;;;;;;5027995;28;20693;-50
2023/08/11 04:16:36;;;;;;;4.50;3.20;;;;;;;;;;5025813;28;20248;-50
2023/08/11 04:19:02;;;;;;;3.47;3.00;;;;;;;;;;5027099;28;20217;-50
2023/08/11 04:21:29;;;;;;;3.33;3.10;;;;;;;;;;5028554;28;20649;-51
2023/08/11 04:23:55;;;;;;;3.70;3.40;;;;;;;;;;5027953;28;20553;-49
2023/08/11 04:26:21;;;;;;;4.13;3.17;;;;;;;;;;5025290;28;20194;-49
2023/08/11 04:28:47;;;;;;;3.20;3.00;;;;;;;;;;5027367;28;20209;-51
2023/08/11 04:31:13;;;;;;;3.00;2.80;;;;;;;;;;5025309;28;20206;-50
2023/08/11 04:33:39;;;;;;;3.17;2.57;;;;;;;;;;5027776;28;20193;-50
2023/08/11 04:36:05;;;;;;;2.90;2.70;;;;;;;;;;5027249;28;20653;-51
2023/08/11 04:38:31;;;;;;;5.23;3.17;;;;;;;;;;5026682;28;20230;-51
2023/08/11 04:40:58;;;;;;;3.00;2.80;;;;;;;;;;5026730;28;20246;-50
2023/08/11 04:43:24;;;;;;;3.10;2.90;;;;;;;;;;5026786;28;20197;-51
2023/08/11 04:45:50;;;;;;;2.80;2.60;;;;;;;;;;5022046;28;20645;-50
2023/08/11 04:48:17;;;;;;;3.30;3.10;;;;;;;;;;5024802;28;20186;-50
2023/08/11 04:50:47;;;;;;;3.27;2.90;;;;;;;;;;5023871;28;20348;-49
2023/08/11 04:53:13;;;;;;;3.13;2.93;;;;;;;;;;5025905;28;20208;-49
2023/08/11 04:55:42;;;;;;;3.20;3.00;;;;;;;;;;5021307;28;20209;-50
2023/08/11 04:58:09;;;;;;;2.70;2.50;;;;;;;;;;5025223;28;20197;-49
2023/08/11 05:00:35;;;;;;;3.57;3.23;;;;;;;;;;5005411;28;20219;-49
2023/08/11 05:03:01;;;;;;;3.20;3.00;;;;;;;;;;5026349;28;20660;-49
2023/08/11 05:05:27;;;;;;;3.10;2.90;;;;;;;;;;5026934;28;20244;-49
2023/08/11 05:07:53;;;;;;;3.50;3.20;;;;;;;;;;5027006;28;20494;-49
2023/08/11 05:10:19;;;;;;;4.07;3.17;;;;;;;;;;5021709;28;20225;-49
2023/08/11 05:12:46;;;;;;;3.33;3.03;;;;;;;;;;5025808;28;20527;-49
2023/08/11 05:15:12;;;;;;;3.70;3.40;;;;;;;;;;5028038;28;20201;-50
2023/08/11 05:17:38;;;;;;;3.10;2.80;;;;;;;;;;5027643;28;20205;-49
2023/08/11 05:20:08;;;;;;;4.07;2.90;;;;;;;;;;5026478;28;20265;-50
2023/08/11 05:22:35;;;;;;;3.27;2.97;;;;;;;;;;5021247;28;20645;-50
2023/08/11 05:25:03;;;;;;;3.37;3.10;;;;;;;;;;5025126;28;20559;-48
2023/08/11 05:27:29;;;;;;;5.07;2.83;;;;;;;;;;5026624;28;20197;-49
2023/08/11 05:29:55;;;;;;;3.43;3.13;;;;;;;;;;5021723;28;20198;-50
2023/08/11 05:32:21;;;;;;;4.77;3.20;;;;;;;;;;5022835;28;20197;-49
2023/08/11 05:34:47;;;;;;;3.30;3.00;;;;;;;;;;5026003;28;20201;-53
2023/08/11 05:37:13;;;;;;;3.83;2.80;;;;;;;;;;5024642;28;20236;-53
2023/08/11 05:39:39;;;;;;;3.93;3.53;;;;;;;;;;5022331;28;20577;-52
2023/08/11 05:42:07;;;;;;;3.70;3.10;;;;;;;;;;5020153;28;20182;-53
2023/08/11 05:44:33;;;;;;;3.73;3.20;;;;;;;;;;5026288;28;20186;-52
2023/08/11 05:46:59;;;;;;;4.80;3.80;;;;;;;;;;5021974;28;20198;-53
2023/08/11 05:49:26;;;;;;;3.33;3.03;;;;;;;;;;5025768;28;20221;-53
2023/08/11 05:51:52;;;;;;;4.77;3.47;;;;;;;;;;5022020;28;20198;-53
2023/08/11 05:54:18;;;;;;;3.60;3.30;;;;;;;;;;5021261;28;20204;-53
2023/08/11 05:56:45;;;;;;;3.27;2.97;;;;;;;;;;5008854;28;20190;-52
2023/08/11 05:59:11;;;;;;;3.77;3.33;;;;;;;;;;5023690;28;20707;-53
2023/08/11 06:01:37;;;;;;;3.87;3.23;;;;;;;;;;5007420;28;20228;-53
2023/08/11 06:04:04;;;;;;;3.60;3.20;;;;;;;;;;5025555;28;20197;-53
2023/08/11 06:06:31;;;;;;;4.63;3.40;;;;;;;;;;5026980;28;20244;-53
2023/08/11 06:08:58;;;;;;;3.40;3.10;;;;;;;;;;5023657;28;20174;-53
2023/08/11 06:11:24;;;;;;;3.73;3.27;;;;;;;;;;5025420;28;20668;-54
2023/08/11 06:13:51;;;;;;;4.10;3.40;;;;;;;;;;5026331;28;20198;-53
2023/08/11 06:16:17;;;;;;;9.13;5.00;;;;;;;;;;5023313;28;20572;-53
2023/08/11 06:18:43;;;;;;;3.67;3.33;;;;;;;;;;5026051;28;20384;-53
2023/08/11 06:21:09;;;;;;;3.50;3.20;;;;;;;;;;5008175;28;20194;-54
2023/08/11 06:23:35;;;;;;;3.43;3.13;;;;;;;;;;5022313;28;20744;-54
2023/08/11 06:26:01;;;;;;;2.93;2.73;;;;;;;;;;5021052;28;20247;-50
2023/08/11 06:28:28;;;;;;;3.20;3.00;;;;;;;;;;5024980;28;20193;-50
2023/08/11 06:30:54;;;;;;;4.57;2.83;;;;;;;;;;5022345;28;20213;-50
2023/08/11 06:33:20;;;;;;;4.80;3.10;;;;;;;;;;5024199;28;20190;-50
2023/08/11 06:35:46;;;;;;;4.57;3.00;;;;;;;;;;5020760;28;20575;-50
2023/08/11 06:38:12;;;;;;;4.17;3.00;;;;;;;;;;5020839;28;20275;-53
2023/08/11 06:40:38;;;;;;;2.80;2.60;;;;;;;;;;5017531;28;20483;-51
2023/08/11 06:43:05;;;;;;;3.37;3.07;;;;;;;;;;5023265;28;20841;-50
2023/08/11 06:45:31;;;;;;;3.07;2.77;;;;;;;;;;5019809;28;20189;-50
2023/08/11 06:47:57;;;;;;;4.17;2.73;;;;;;;;;;5021331;28;20190;-50
2023/08/11 06:50:23;;;;;;;5.47;2.90;;;;;;;;;;5019007;28;20206;-49
2023/08/11 06:52:49;;;;;;;4.43;3.10;;;;;;;;;;5025022;28;20202;-51
2023/08/11 06:55:15;;;;;;;4.10;3.00;;;;;;;;;;5021062;28;20205;-52
2023/08/11 06:57:41;;;;;;;3.47;2.97;;;;;;;;;;5025161;28;20245;-53
2023/08/11 07:00:08;;;;;;;2.77;2.57;;;;;;;;;;5023798;28;20221;-54
2023/08/11 07:02:34;;;;;;;3.23;2.60;;;;;;;;;;5029406;28;20642;-53
2023/08/11 07:05:00;;;;;;;3.43;3.13;;;;;;;;;;5023970;28;20189;-52
2023/08/11 07:07:27;;;;;;;3.20;2.70;;;;;;;;;;5027397;28;20178;-52
2023/08/11 07:09:53;;;;;;;2.80;2.60;;;;;;;;;;5026848;28;20197;-53
2023/08/11 07:12:19;;;;;;;3.30;3.00;;;;;;;;;;5024598;28;20251;-53
2023/08/11 07:14:45;;;;;;;3.17;2.87;;;;;;;;;;5024631;28;20198;-52
2023/08/11 07:17:11;;;;;;;3.30;3.00;;;;;;;;;;5026976;28;20224;-52
2023/08/11 07:19:37;;;;;;;4.20;3.20;;;;;;;;;;5021317;28;20226;-52
2023/08/11 07:22:04;;;;;;;3.33;2.57;;;;;;;;;;5020462;28;20187;-52
2023/08/11 07:24:30;;;;;;;5.53;3.43;;;;;;;;;;5021916;28;20256;-52
2023/08/11 07:26:57;;;;;;;4.30;3.23;;;;;;;;;;5024528;28;20209;-54
2023/08/11 07:29:23;;;;;;;3.47;2.60;;;;;;;;;;5025993;28;20304;-53
2023/08/11 07:31:49;;;;;;;2.77;2.57;;;;;;;;;;5026418;28;20591;-53
2023/08/11 07:34:15;;;;;;;3.77;2.70;;;;;;;;;;5026268;28;20190;-53
2023/08/11 07:36:43;;;;;;;3.00;2.70;;;;;;;;;;5030545;28;20699;-55
2023/08/11 07:39:09;;;;;;;3.57;3.10;;;;;;;;;;5029145;28;21017;-53
2023/08/11 07:41:35;;;;;;;4.43;2.87;;;;;;;;;;5018874;28;20202;-53
2023/08/11 07:44:02;;;;;;;4.57;3.13;;;;;;;;;;5027209;28;20240;-53
2023/08/11 07:46:28;;;;;;;3.43;2.73;;;;;;;;;;5006247;28;20191;-53
2023/08/11 07:48:55;;;;;;;3.10;2.90;;;;;;;;;;5025119;28;20599;-53
2023/08/11 07:51:21;;;;;;;5.20;3.83;;;;;;;;;;5028509;28;21112;-53
2023/08/11 07:53:47;;;;;;;4.60;2.87;;;;;;;;;;5028289;28;20197;-53
2023/08/11 07:56:13;;;;;;;4.20;3.50;;;;;;;;;;5027523;28;20204;-53
2023/08/11 07:58:40;;;;;;;3.57;3.03;;;;;;;;;;5025051;28;20240;-53
2023/08/11 08:01:08;;;;;;;3.30;3.00;;;;;;;;;;5028863;28;20225;-52
2023/08/11 08:03:35;;;;;;;4.03;3.20;;;;;;;;;;5025861;28;20237;-52
2023/08/11 08:06:04;;;;;;;5.10;2.90;;;;;;;;;;5027834;28;20190;-53
2023/08/11 08:08:31;;;;;;;3.20;2.90;;;;;;;;;;5027307;28;20285;-53
2023/08/11 08:10:57;;;;;;;6.03;3.33;;;;;;;;;;5027700;28;20412;-53
2023/08/11 08:13:23;;;;;;;4.93;3.17;;;;;;;;;;5028040;28;20203;-52
2023/08/11 08:15:49;;;;;;;3.30;3.00;;;;;;;;;;5030266;28;20206;-53
2023/08/11 08:18:15;;;;;;;3.33;3.00;;;;;;;;;;5029458;28;20251;-53
2023/08/11 08:20:41;;;;;;;3.40;3.10;;;;;;;;;;5030718;28;20430;-53
2023/08/11 08:23:07;;;;;;;4.73;2.90;;;;;;;;;;5028445;28;20189;-53
2023/08/11 08:25:33;;;;;;;3.60;3.03;;;;;;;;;;5024869;28;20182;-54
2023/08/11 08:27:59;;;;;;;3.53;3.13;;;;;;;;;;5023104;28;20189;-53
2023/08/11 08:30:25;;;;;;;3.07;2.83;;;;;;;;;;5026983;28;20225;-54
2023/08/11 08:32:51;;;;;;;2.90;2.60;;;;;;;;;;5028889;28;20509;-54
2023/08/11 08:35:17;;;;;;;3.17;2.80;;;;;;;;;;5025686;28;20229;-55
2023/08/11 08:37:44;;;;;;;2.97;2.60;;;;;;;;;;5027403;28;20247;-55
2023/08/11 08:40:12;;;;;;;3.70;3.03;;;;;;;;;;5024015;28;20915;-54
2023/08/11 08:42:41;;;;;;;3.10;2.80;;;;;;;;;;5025002;28;20191;-54
2023/08/11 08:45:08;;;;;;;3.67;2.97;;;;;;;;;;5025945;28;20291;-54
2023/08/11 08:47:35;;;;;;;4.20;3.10;;;;;;;;;;5027064;28;20559;-54
2023/08/11 08:50:03;;;;;;;5.23;2.80;;;;;;;;;;5025886;28;20219;-54
2023/08/11 08:52:29;;;;;;;4.37;3.00;;;;;;;;;;5026268;28;20192;-54
2023/08/11 08:54:56;;;;;;;3.63;3.20;;;;;;;;;;5028960;28;20210;-54
2023/08/11 08:57:25;;;;;;;3.37;2.97;;;;;;;;;;5025688;28;20196;-54
2023/08/11 08:59:51;;;;;;;3.63;3.23;;;;;;;;;;5024613;28;20223;-53
2023/08/11 09:02:18;;;;;;;5.10;3.07;;;;;;;;;;5026259;28;20539;-55
2023/08/11 09:04:45;;;;;;;4.33;3.13;;;;;;;;;;5022829;28;20286;-54
2023/08/11 09:07:11;;;;;;;3.30;3.00;;;;;;;;;;5023315;28;20278;-54
2023/08/11 09:09:37;;;;;;;3.23;2.93;;;;;;;;;;5026627;28;20191;-55
2023/08/11 09:12:03;;;;;;;3.57;3.20;;;;;;;;;;5026823;28;20192;-54
2023/08/11 09:14:30;;;;;;;3.53;3.13;;;;;;;;;;5028490;28;20643;-54
2023/08/11 09:16:58;;;;;;;3.40;3.10;;;;;;;;;;5026398;28;20195;-54
2023/08/11 09:19:24;;;;;;;4.83;3.27;;;;;;;;;;5023922;28;20216;-54
2023/08/11 09:21:50;;;;;;;5.07;3.07;;;;;;;;;;5021661;28;20191;-54
2023/08/11 09:24:17;;;;;;;3.70;3.40;;;;;;;;;;5025115;28;20199;-55
2023/08/11 09:26:44;;;;;;;3.83;3.50;;;;;;;;;;5025592;28;20200;-55
2023/08/11 09:29:11;;;;;;;4.20;3.30;;;;;;;;;;5025089;28;20195;-55
2023/08/11 09:31:38;;;;;;;3.17;2.87;;;;;;;;;;5025922;28;20224;-54
2023/08/11 09:34:24;;;;;;;3.20;2.87;;;;;;;;;;5024134;28;20202;-55
2023/08/11 09:36:50;;;;;;;2.90;2.60;;;;;;;;;;5025046;28;20236;-51
2023/08/11 09:39:17;;;;;;;3.23;2.93;;;;;;;;;;5023458;28;20214;-51
2023/08/11 09:41:44;;;;;;;3.27;2.80;;;;;;;;;;5025411;28;20653;-52
2023/08/11 09:44:15;;;;;;;3.63;3.03;;;;;;;;;;5020974;28;20197;-51
2023/08/11 09:46:42;;;;;;;4.43;2.93;;;;;;;;;;5020937;28;20695;-52
2023/08/11 09:49:08;;;;;;;3.37;2.83;;;;;;;;;;5022824;28;20207;-51
2023/08/11 09:51:37;;;;;;;3.30;2.80;;;;;;;;;;5025077;28;20178;-52
2023/08/11 09:54:06;;;;;;;5.10;3.23;;;;;;;;;;5021196;28;20198;-52
2023/08/11 09:56:36;;;;;;;3.33;3.03;;;;;;;;;;5025934;28;20186;-52
2023/08/11 09:59:04;;;;;;;3.23;2.90;;;;;;;;;;5025561;28;20194;-51
2023/08/11 10:01:32;;;;;;;3.57;3.27;;;;;;;;;;5021710;28;20197;-53
2023/08/11 10:04:01;;;;;;;3.93;2.97;;;;;;;;;;5022075;28;20190;-52
2023/08/11 10:06:28;;;;;;;3.27;2.93;;;;;;;;;;5024634;28;20178;-52
2023/08/11 10:08:55;;;;;;;3.30;3.00;;;;;;;;;;5006020;28;20225;-52
2023/08/11 10:11:22;;;;;;;3.30;3.00;;;;;;;;;;5023649;28;20270;-53
2023/08/11 10:13:48;;;;;;;3.00;2.70;;;;;;;;;;5025795;28;20195;-51
2023/08/11 10:16:15;;;;;;;3.37;3.03;;;;;;;;;;5024976;28;20194;-52
2023/08/11 10:18:43;;;;;;;3.77;3.47;;;;;;;;;;5021979;28;20185;-53
2023/08/11 10:21:09;;;;;;;3.70;2.90;;;;;;;;;;5025096;28;20217;-52
2023/08/11 10:23:36;;;;;;;3.53;3.23;;;;;;;;;;5018859;28;20684;-51
2023/08/11 10:26:03;;;;;;;4.20;2.93;;;;;;;;;;5021046;28;20281;-52
2023/08/11 10:28:30;;;;;;;3.60;2.70;;;;;;;;;;5023751;28;20206;-52
2023/08/11 10:31:02;;;;;;;2.97;2.77;;;;;;;;;;5022665;28;20213;-52
2023/08/11 10:33:31;;;;;;;3.40;3.10;;;;;;;;;;5025134;28;20198;-52
2023/08/11 10:36:00;;;;;;;4.63;3.20;;;;;;;;;;5019507;28;20289;-53
2023/08/11 10:38:28;;;;;;;3.53;3.23;;;;;;;;;;5020011;28;20233;-51
2023/08/11 10:41:05;;;;;;;4.20;3.30;;;;;;;;;;5003642;28;20445;-53
2023/08/11 10:43:37;;;;;;;3.53;3.23;;;;;;;;;;5023657;28;20194;-51
2023/08/11 10:46:22;;;;;;;3.67;3.33;;;;;;;;;;5026524;28;20610;-51
2023/08/11 10:48:48;;;;;;;3.10;2.80;;;;;;;;;;5024417;28;21092;-51
2023/08/11 10:51:41;;;;;;;4.33;3.27;;;;;;;;;;5028649;28;20248;-51
2023/08/11 10:54:09;;;;;;;4.53;3.20;;;;;;;;;;5023473;28;20182;-51
2023/08/11 10:56:37;;;;;;;4.63;3.00;;;;;;;;;;5029427;28;20529;-50
2023/08/11 10:59:08;;;;;;;3.20;2.90;;;;;;;;;;5007094;28;20195;-52
2023/08/11 11:01:35;;;;;;;5.60;3.20;;;;;;;;;;5022403;28;20264;-53
2023/08/11 11:04:02;;;;;;;3.27;2.97;;;;;;;;;;5021726;28;20544;-52
2023/08/11 11:06:29;;;;;;;3.47;3.17;;;;;;;;;;5025822;28;20601;-52
2023/08/11 11:08:55;;;;;;;3.57;3.20;;;;;;;;;;5023584;28;20195;-53
2023/08/11 11:11:21;;;;;;;3.90;3.50;;;;;;;;;;5025968;28;20190;-52
2023/08/11 11:13:47;;;;;;;3.77;3.30;;;;;;;;;;5021144;28;20217;-52
2023/08/11 11:16:14;;;;;;;3.20;3.00;;;;;;;;;;5030340;28;20182;-52
2023/08/11 11:18:42;;;;;;;3.77;3.13;;;;;;;;;;5008422;28;20191;-52
2023/08/11 11:21:09;;;;;;;3.50;3.20;;;;;;;;;;5028786;28;20284;-52
2023/08/11 11:23:35;;;;;;;3.47;3.20;;;;;;;;;;5027346;28;20269;-52
2023/08/11 11:26:01;;;;;;;3.40;3.10;;;;;;;;;;5008811;28;20341;-52
2023/08/11 11:28:28;;;;;;;3.37;3.03;;;;;;;;;;5011212;28;20190;-51
2023/08/11 11:30:55;;;;;;;3.87;3.47;;;;;;;;;;5028457;28;20217;-52
2023/08/11 11:33:22;;;;;;;4.10;3.70;;;;;;;;;;5034651;28;20194;-52
2023/08/11 11:35:49;;;;;;;3.70;3.40;;;;;;;;;;5024919;28;20216;-53
2023/08/11 11:38:15;;;;;;;4.40;3.13;;;;;;;;;;5029143;28;20237;-52
2023/08/11 11:40:41;;;;;;;4.10;3.80;;;;;;;;;;5021001;28;20215;-52
2023/08/11 11:43:08;;;;;;;3.90;3.50;;;;;;;;;;5006034;28;21044;-52
2023/08/11 11:45:35;;;;;;;3.57;3.27;;;;;;;;;;5021789;28;20219;-52
2023/08/11 11:48:01;;;;;;;5.10;3.73;;;;;;;;;;5017652;28;20197;-52
2023/08/11 11:50:29;;;;;;;3.83;3.43;;;;;;;;;;5028944;28;20562;-52
2023/08/11 11:52:56;;;;;;;3.50;3.20;;;;;;;;;;5031046;28;20592;-51
2023/08/11 11:55:22;;;;;;;4.50;3.67;;;;;;;;;;5030261;28;20184;-51
2023/08/11 11:57:48;;;;;;;4.10;3.60;;;;;;;;;;5030833;28;20190;-52
2023/08/11 12:00:16;;;;;;;3.80;3.50;;;;;;;;;;5012848;28;20310;-52
2023/08/11 12:02:43;;;;;;;4.33;3.43;;;;;;;;;;5030613;28;20211;-51
2023/08/11 12:05:09;;;;;;;3.73;3.43;;;;;;;;;;5031298;28;20366;-55
2023/08/11 12:07:36;;;;;;;3.50;3.20;;;;;;;;;;5030639;28;20172;-55
2023/08/11 12:10:06;;;;;;;3.87;3.37;;;;;;;;;;5030326;28;20555;-55
2023/08/11 12:12:33;;;;;;;4.13;3.73;;;;;;;;;;5031105;28;20176;-55
2023/08/11 12:15:06;;;;;;;3.13;2.87;;;;;;;;;;5030727;28;20263;-55
2023/08/11 12:17:33;;;;;;;3.67;3.37;;;;;;;;;;5030043;28;20188;-52
2023/08/11 12:20:08;;;;;;;3.70;3.40;;;;;;;;;;5012612;28;20307;-52
2023/08/11 12:22:34;;;;;;;3.80;3.50;;;;;;;;;;5030418;28;20278;-51
2023/08/11 12:25:00;;;;;;;3.60;3.30;;;;;;;;;;5029476;28;20287;-52
2023/08/11 12:27:26;;;;;;;3.73;3.43;;;;;;;;;;5030656;28;20162;-52
2023/08/11 12:29:52;;;;;;;4.87;4.47;;;;;;;;;;5030824;28;20224;-53
2023/08/11 12:32:18;;;;;;;4.47;3.30;;;;;;;;;;5030244;28;20190;-53
2023/08/11 12:34:44;;;;;;;3.33;3.07;;;;;;;;;;5030157;28;20196;-53
2023/08/11 12:37:10;;;;;;;3.33;3.03;;;;;;;;;;5030071;28;20247;-52
2023/08/11 12:39:36;;;;;;;4.63;4.20;;;;;;;;;;5029735;28;20584;-52
2023/08/11 12:42:02;;;;;;;3.27;3.03;;;;;;;;;;5030370;28;20187;-52
2023/08/11 12:44:28;;;;;;;3.63;3.33;;;;;;;;;;5030376;28;20188;-52
2023/08/11 12:46:54;;;;;;;4.70;3.23;;;;;;;;;;5030174;28;20244;-52
2023/08/11 12:49:21;;;;;;;3.10;2.80;;;;;;;;;;5030033;28;20182;-52
2023/08/11 12:51:51;;;;;;;3.77;3.23;;;;;;;;;;5030108;28;20173;-52
2023/08/11 12:54:17;;;;;;;4.00;2.90;;;;;;;;;;5029906;28;20173;-53
2023/08/11 12:56:43;;;;;;;3.77;3.47;;;;;;;;;;5029961;28;20666;-52
2023/08/11 12:59:09;;;;;;;3.90;3.60;;;;;;;;;;5029548;28;20193;-52
2023/08/11 13:01:35;;;;;;;3.80;3.50;;;;;;;;;;5028402;28;20196;-52
2023/08/11 13:04:03;;;;;;;4.07;3.37;;;;;;;;;;5023732;28;20940;-52
2023/08/11 13:06:29;;;;;;;5.17;3.53;;;;;;;;;;5026959;28;20195;-52
2023/08/11 13:08:56;;;;;;;3.47;3.17;;;;;;;;;;5025729;28;20221;-53
2023/08/11 13:11:22;;;;;;;5.40;3.33;;;;;;;;;;5029652;28;20209;-53
2023/08/11 13:13:48;;;;;;;3.57;3.20;;;;;;;;;;5028686;28;20200;-53
2023/08/11 13:16:15;;;;;;;3.13;2.93;;;;;;;;;;5030007;28;20246;-52
2023/08/11 13:18:42;;;;;;;4.03;3.47;;;;;;;;;;5028972;28;20583;-54
2023/08/11 13:21:08;;;;;;;3.40;3.10;;;;;;;;;;5011902;28;20212;-52
2023/08/11 13:23:34;;;;;;;3.40;3.10;;;;;;;;;;5028288;28;20189;-52
2023/08/11 13:26:00;;;;;;;3.20;2.97;;;;;;;;;;5011481;28;20201;-52
2023/08/11 13:28:26;;;;;;;3.50;3.20;;;;;;;;;;5028389;28;20424;-52
2023/08/11 13:30:52;;;;;;;3.73;3.43;;;;;;;;;;5029526;28;20744;-52
2023/08/11 13:33:18;;;;;;;3.37;3.07;;;;;;;;;;5029146;28;20280;-52
2023/08/11 13:35:44;;;;;;;3.50;3.20;;;;;;;;;;5029058;28;20180;-53
2023/08/11 13:38:12;;;;;;;3.20;2.90;;;;;;;;;;5028812;28;20240;-53
2023/08/11 13:40:38;;;;;;;3.13;2.93;;;;;;;;;;5028682;28;20219;-54
2023/08/11 13:43:05;;;;;;;4.17;3.40;;;;;;;;;;5029791;28;20206;-54
2023/08/11 13:45:31;;;;;;;3.37;3.17;;;;;;;;;;5029259;28;20180;-54
2023/08/11 13:47:57;;;;;;;4.93;3.13;;;;;;;;;;5029347;28;20178;-52
2023/08/11 13:50:23;;;;;;;5.60;2.87;;;;;;;;;;5028616;28;20643;-52
2023/08/11 13:52:49;;;;;;;5.70;3.50;;;;;;;;;;5028312;28;20189;-52
2023/08/11 13:55:15;;;;;;;3.10;2.90;;;;;;;;;;5027814;28;20193;-52
2023/08/11 13:57:41;;;;;;;4.27;3.50;;;;;;;;;;5028839;28;20276;-53
2023/08/11 14:00:11;;;;;;;3.97;3.67;;;;;;;;;;5021680;28;20301;-52
2023/08/11 14:02:37;;;;;;;3.37;3.17;;;;;;;;;;5011385;28;20175;-52
2023/08/11 14:05:04;;;;;;;6.37;3.97;;;;;;;;;;5029269;28;20178;-52
2023/08/11 14:07:30;;;;;;;4.73;3.27;;;;;;;;;;5028239;28;20186;-51
2023/08/11 14:09:56;;;;;;;3.23;2.93;;;;;;;;;;5028338;28;20263;-52
2023/08/11 14:12:22;;;;;;;3.13;2.92;;;;;;;;;;5029316;28;20564;-52
2023/08/11 14:14:48;;;;;;;4.03;3.03;;;;;;;;;;5029234;28;20645;-52
2023/08/11 14:17:14;;;;;;;3.40;3.10;;;;;;;;;;5031475;28;20549;-51
2023/08/11 14:19:40;;;;;;;3.67;3.20;;;;;;;;;;5032617;28;20205;-51
2023/08/11 14:22:06;;;;;;;3.80;3.50;;;;;;;;;;5032591;28;20270;-51
2023/08/11 14:24:32;;;;;;;3.73;3.30;;;;;;;;;;5032153;28;20186;-51
2023/08/11 14:26:58;;;;;;;3.87;2.80;;;;;;;;;;5032921;28;20174;-51
2023/08/11 14:29:24;;;;;;;3.10;2.80;;;;;;;;;;5032786;28;20181;-51
2023/08/11 14:31:50;;;;;;;3.53;3.23;;;;;;;;;;5032733;28;20715;-51
2023/08/11 14:34:16;;;;;;;3.13;2.93;;;;;;;;;;5032173;28;20212;-51
2023/08/11 14:36:43;;;;;;;3.20;3.00;;;;;;;;;;5032812;28;20222;-51
2023/08/11 14:39:09;;;;;;;4.40;3.00;;;;;;;;;;5031530;28;20194;-51
2023/08/11 14:41:35;;;;;;;3.63;3.17;;;;;;;;;;5032594;28;20194;-51